Time;durP1;ratioP1;P1;durP2;ratioP2;P2;SDS_P1;SDS_P2;PMS_P1;PMS_P2;Temp;Humidity;BMP_temperature;BMP_pressure;BME280_temperature;BME280_humidity;BME280_pressure;Samples;Min_cycle;Max_cycle;Signal;HPM_P1;HPM_P2
2021/08/04 00:01:24;;;;;;;0.32;0.32;;;;;;;20.04;61.93;98051.59;6126373;23;20014;-71
2021/08/04 00:03:50;;;;;;;0.30;0.20;;;;;;;20.00;62.04;98056.16;6126794;23;20049;-71
2021/08/04 00:06:16;;;;;;;0.73;0.52;;;;;;;19.95;62.36;98059.88;6126369;23;20025;-71
2021/08/04 00:08:42;;;;;;;0.30;0.30;;;;;;;19.89;62.23;98064.75;6126461;23;20021;-71
2021/08/04 00:11:08;;;;;;;0.40;0.40;;;;;;;19.82;62.48;98061.56;6125685;23;20033;-70
2021/08/04 00:13:33;;;;;;;0.70;0.70;;;;;;;19.79;62.52;98076.13;6126627;23;20014;-71
2021/08/04 00:15:59;;;;;;;0.45;0.35;;;;;;;19.83;62.41;98079.94;6126247;23;20024;-70
2021/08/04 00:18:25;;;;;;;0.35;0.35;;;;;;;19.84;62.39;98076.00;6125916;23;20013;-69
2021/08/04 00:20:50;;;;;;;1.15;0.60;;;;;;;19.87;62.42;98057.84;6126098;23;20351;-69
2021/08/04 00:23:16;;;;;;;0.55;0.55;;;;;;;19.92;62.32;98055.75;6125996;23;20038;-69
2021/08/04 00:25:42;;;;;;;0.40;0.40;;;;;;;20.00;62.26;98061.72;6100403;23;20010;-70
2021/08/04 00:28:08;;;;;;;0.22;0.22;;;;;;;20.06;62.03;98060.47;6126535;23;20017;-70
2021/08/04 00:30:34;;;;;;;0.30;0.30;;;;;;;20.16;61.96;98060.22;6125956;23;20016;-70
2021/08/04 00:32:59;;;;;;;0.40;0.40;;;;;;;20.25;61.91;98069.44;6126325;23;20013;-70
2021/08/04 00:35:26;;;;;;;1.88;0.50;;;;;;;20.35;61.16;98073.13;6126136;23;20033;-70
2021/08/04 00:37:52;;;;;;;0.13;0.13;;;;;;;20.42;61.25;98074.34;6126049;23;20066;-68
2021/08/04 00:40:18;;;;;;;0.20;0.20;;;;;;;20.46;61.07;98064.19;6125527;23;20089;-69
2021/08/04 00:42:44;;;;;;;0.10;0.10;;;;;;;20.43;61.35;98069.56;6126071;23;20447;-69
2021/08/04 00:45:11;;;;;;;3.70;1.27;;;;;;;20.40;61.42;98076.59;6126303;23;20013;-69
2021/08/04 00:47:38;;;;;;;0.60;0.57;;;;;;;20.37;61.98;98071.66;6126585;23;20404;-68
2021/08/04 00:50:05;;;;;;;0.30;0.30;;;;;;;20.37;61.81;98070.84;6126096;23;20013;-69
2021/08/04 00:52:31;;;;;;;0.45;0.40;;;;;;;20.42;61.95;98081.84;6126375;23;20065;-70
2021/08/04 00:54:56;;;;;;;0.68;0.68;;;;;;;20.51;61.61;98071.59;6126217;23;20018;-70
2021/08/04 00:57:22;;;;;;;0.22;0.22;;;;;;;20.61;61.19;98082.50;6126057;23;20110;-68
2021/08/04 00:59:48;;;;;;;0.30;0.30;;;;;;;20.84;61.09;98071.31;6126312;23;20005;-70
2021/08/04 01:02:35;;;;;;;1.25;1.15;;;;;;;21.88;58.60;98056.84;6127311;23;20025;-70
2021/08/04 01:05:06;;;;;;;0.75;0.65;;;;;;;22.18;57.84;98059.78;6146058;23;20010;-69
2021/08/04 01:07:35;;;;;;;0.90;0.43;;;;;;;22.02;58.39;98067.84;6128419;23;20030;-69
2021/08/04 01:10:05;;;;;;;1.40;0.82;;;;;;;21.89;58.80;98066.03;6125625;23;20507;-69
2021/08/04 01:13:01;;;;;;;1.23;0.45;;;;;;;21.83;59.10;98050.56;6125904;23;20037;-68
2021/08/04 01:15:32;;;;;;;0.25;0.25;;;;;;;21.91;59.40;98048.94;6125951;23;20017;-69
2021/08/04 01:17:59;;;;;;;0.73;0.70;;;;;;;22.15;58.55;98051.25;6125728;23;20037;-68
2021/08/04 01:20:27;;;;;;;0.22;0.22;;;;;;;22.76;57.43;98056.72;6125732;23;20089;-69
2021/08/04 01:22:59;;;;;;;0.10;0.10;;;;;;;23.94;54.48;98072.00;6125788;23;20013;-68
2021/08/04 01:25:39;;;;;;;0.17;0.17;;;;;;;25.25;52.19;98064.22;6125887;23;20073;-67
2021/08/04 01:28:27;;;;;;;0.10;0.10;;;;;;;26.11;50.75;98057.72;6125718;23;20017;-66
2021/08/04 01:31:04;;;;;;;0.10;0.10;;;;;;;26.96;49.34;98049.22;6125687;23;20037;-67
2021/08/04 01:33:31;;;;;;;0.20;0.20;;;;;;;27.10;49.28;98048.75;6125637;23;20061;-68
2021/08/04 01:35:58;;;;;;;1.35;1.00;;;;;;;26.82;50.22;98046.81;6125615;23;20102;-68
2021/08/04 01:38:25;;;;;;;0.13;0.13;;;;;;;26.61;51.10;98051.88;6125541;23;20024;-67
2021/08/04 01:40:53;;;;;;;0.28;0.28;;;;;;;26.89;50.72;98054.66;6125132;23;20018;-69
2021/08/04 01:43:21;;;;;;;0.10;0.10;;;;;;;27.40;49.85;98060.41;6125828;23;20098;-70
2021/08/04 01:45:47;;;;;;;0.22;0.22;;;;;;;28.18;48.48;98059.78;6125725;23;20014;-68
2021/08/04 01:48:13;;;;;;;0.40;0.30;;;;;;;28.70;47.67;98054.78;6126095;23;20037;-68
2021/08/04 01:50:40;;;;;;;0.28;0.28;;;;;;;29.45;46.49;98057.34;6125963;23;20070;-69
2021/08/04 01:53:07;;;;;;;0.38;0.35;;;;;;;30.13;45.51;98051.88;6125523;23;20014;-69
2021/08/04 01:55:33;;;;;;;0.10;0.10;;;;;;;30.54;44.78;98054.81;6125497;23;20399;-68
2021/08/04 01:57:59;;;;;;;0.55;0.55;;;;;;;30.96;44.70;98053.63;6125666;23;20010;-69
2021/08/04 02:00:25;;;;;;;0.10;0.10;;;;;;;31.45;44.10;98058.16;6125340;23;20009;-69
2021/08/04 02:02:50;;;;;;;0.25;0.25;;;;;;;31.91;43.32;98070.25;6100008;23;20014;-70
2021/08/04 02:05:16;;;;;;;0.10;0.10;;;;;;;31.93;43.41;98065.78;6125669;23;20009;-69
2021/08/04 02:07:58;;;;;;;0.20;0.20;;;;;;;31.16;45.41;98051.44;6125524;23;20101;-70
2021/08/04 02:10:31;;;;;;;0.10;0.10;;;;;;;30.62;46.63;98050.06;6124719;23;20014;-65
2021/08/04 02:13:10;;;;;;;0.10;0.10;;;;;;;31.13;45.52;98051.41;6125581;23;20339;-70
2021/08/04 02:15:39;;;;;;;0.17;0.17;;;;;;;32.05;44.20;98049.63;6125750;23;20179;-70
2021/08/04 02:18:09;;;;;;;0.10;0.10;;;;;;;33.03;42.36;98056.53;6125496;23;20093;-70
2021/08/04 02:20:38;;;;;;;0.10;0.10;;;;;;;33.88;41.45;98046.38;6125253;23;20010;-70
2021/08/04 02:23:13;;;;;;;0.10;0.10;;;;;;;34.68;39.79;98056.25;6099390;23;20009;-70
2021/08/04 02:25:45;;;;;;;0.20;0.20;;;;;;;35.53;38.97;98047.53;6125591;23;20040;-70
2021/08/04 02:28:15;;;;;;;0.07;0.07;;;;;;;36.35;38.04;98061.41;6125787;23;20013;-70
2021/08/04 02:30:41;;;;;;;0.45;0.45;;;;;;;37.20;37.19;98044.28;6125688;23;20097;-70
2021/08/04 02:33:07;;;;;;;0.10;0.10;;;;;;;37.83;36.59;98037.91;6125585;23;20439;-70
2021/08/04 02:35:33;;;;;;;0.32;0.20;;;;;;;38.09;36.65;98043.16;6125388;23;20014;-71
2021/08/04 02:37:59;;;;;;;0.35;0.30;;;;;;;38.20;36.67;98044.59;6125881;23;20347;-71
2021/08/04 02:40:25;;;;;;;0.20;0.20;;;;;;;38.42;36.64;98047.03;6124211;23;20006;-70
2021/08/04 02:42:54;;;;;;;0.10;0.10;;;;;;;38.86;36.08;98044.03;6125071;23;20042;-71
2021/08/04 02:45:20;;;;;;;0.17;0.17;;;;;;;39.15;36.00;98049.94;6124756;23;20014;-70
2021/08/04 02:47:46;;;;;;;0.20;0.20;;;;;;;39.36;36.05;98048.59;6125254;23;20006;-69
2021/08/04 02:50:13;;;;;;;0.10;0.10;;;;;;;39.63;35.81;98058.22;6125495;23;20384;-71
2021/08/04 02:52:40;;;;;;;0.35;0.35;;;;;;;39.84;35.48;98065.44;6125302;23;20033;-70
2021/08/04 02:55:07;;;;;;;0.85;0.57;;;;;;;40.08;35.47;98063.19;6125339;23;20022;-70
2021/08/04 02:57:33;;;;;;;0.25;0.13;;;;;;;40.36;35.30;98073.06;6125188;23;20010;-71
2021/08/04 02:59:59;;;;;;;0.10;0.10;;;;;;;40.66;34.98;98073.84;6125100;23;20060;-72
2021/08/04 03:02:24;;;;;;;0.52;0.40;;;;;;;41.16;34.42;98055.03;6125024;23;20013;-72
2021/08/04 03:04:51;;;;;;;0.80;0.68;;;;;;;41.62;33.91;98039.56;6125209;23;20013;-70
2021/08/04 03:07:17;;;;;;;0.20;0.20;;;;;;;42.24;32.98;98044.78;6125939;23;20030;-71
2021/08/04 03:09:43;;;;;;;0.20;0.20;;;;;;;42.91;32.48;98047.63;6142126;23;20046;-70
2021/08/04 03:12:09;;;;;;;0.38;0.38;;;;;;;43.45;31.77;98031.84;6133961;23;20044;-71
2021/08/04 03:14:34;;;;;;;0.10;0.10;;;;;;;43.99;31.44;98028.69;6125112;23;20014;-70
2021/08/04 03:17:00;;;;;;;0.20;0.20;;;;;;;44.49;30.61;98020.63;6125191;23;20021;-70
2021/08/04 03:19:26;;;;;;;0.17;0.17;;;;;;;45.18;30.14;98034.75;6124860;23;20010;-69
2021/08/04 03:21:51;;;;;;;0.20;0.20;;;;;;;46.32;28.97;98027.22;6125174;23;20351;-71
2021/08/04 03:24:17;;;;;;;0.35;0.30;;;;;;;46.65;28.78;98021.25;6125502;23;20013;-69
2021/08/04 03:26:43;;;;;;;0.22;0.22;;;;;;;46.82;28.82;98038.16;6124962;23;20030;-71
2021/08/04 03:29:09;;;;;;;0.10;0.10;;;;;;;46.75;29.16;98036.47;6124934;23;20014;-71
2021/08/04 03:31:34;;;;;;;0.20;0.20;;;;;;;46.51;29.60;98034.44;6125068;23;20029;-71
2021/08/04 03:34:01;;;;;;;0.70;0.30;;;;;;;46.57;29.75;98028.72;6124998;23;20053;-71
2021/08/04 03:36:28;;;;;;;0.30;0.30;;;;;;;46.68;29.64;98031.84;6124706;23;20025;-70
2021/08/04 03:38:54;;;;;;;0.20;0.20;;;;;;;46.92;29.20;98027.22;6125040;23;20010;-70
2021/08/04 03:41:20;;;;;;;1.02;1.02;;;;;;;46.92;29.25;98009.81;6124623;23;20024;-71
2021/08/04 03:43:46;;;;;;;0.30;0.30;;;;;;;47.02;29.23;98009.19;6124634;23;20010;-71
2021/08/04 03:46:12;;;;;;;0.30;0.30;;;;;;;47.20;29.09;98010.25;6124868;23;20066;-71
2021/08/04 03:48:37;;;;;;;0.17;0.17;;;;;;;47.47;28.80;98011.19;6121981;23;20095;-70
2021/08/04 03:51:03;;;;;;;0.20;0.20;;;;;;;47.51;28.65;98014.69;6124857;23;20114;-72
2021/08/04 03:53:29;;;;;;;0.60;0.60;;;;;;;47.48;28.64;98006.97;6126511;23;20045;-71
2021/08/04 03:55:55;;;;;;;0.32;0.32;;;;;;;47.57;28.89;98006.03;6126766;23;20351;-71
2021/08/04 03:58:21;;;;;;;0.95;0.30;;;;;;;47.90;28.34;98014.44;6126755;23;20037;-72
2021/08/04 04:00:47;;;;;;;0.20;0.20;;;;;;;47.99;28.07;98008.44;6127214;23;20013;-72
2021/08/04 04:03:13;;;;;;;0.30;0.30;;;;;;;47.96;28.05;98000.75;6126530;23;20089;-70
2021/08/04 04:05:38;;;;;;;0.30;0.30;;;;;;;47.84;28.29;98008.53;6126616;23;20014;-72
2021/08/04 04:08:04;;;;;;;0.20;0.20;;;;;;;47.61;28.95;98004.50;6126531;23;20152;-71
2021/08/04 04:10:31;;;;;;;0.20;0.20;;;;;;;47.47;28.52;98008.28;6126092;23;20090;-71
2021/08/04 04:12:56;;;;;;;0.98;0.50;;;;;;;47.40;28.58;98011.63;6126313;23;20010;-71
2021/08/04 04:15:22;;;;;;;0.20;0.20;;;;;;;47.30;28.61;98010.94;6126330;23;20013;-70
2021/08/04 04:17:48;;;;;;;0.20;0.20;;;;;;;47.17;28.74;98014.19;6126263;23;20014;-70
2021/08/04 04:20:14;;;;;;;0.20;0.20;;;;;;;47.16;28.60;98006.75;6126162;23;20014;-71
2021/08/04 04:22:44;;;;;;;0.28;0.28;;;;;;;47.16;28.21;97990.13;6126190;23;20010;-72
2021/08/04 04:25:12;;;;;;;0.20;0.20;;;;;;;47.20;28.27;97981.19;6126510;23;20079;-71
2021/08/04 04:27:39;;;;;;;0.32;0.32;;;;;;;47.40;27.89;97982.53;6126403;23;20065;-72
2021/08/04 04:30:05;;;;;;;0.38;0.38;;;;;;;47.79;27.35;97985.19;6126000;23;20040;-72
2021/08/04 04:32:31;;;;;;;0.20;0.20;;;;;;;48.02;27.19;98001.59;6126196;23;20010;-71
2021/08/04 04:34:57;;;;;;;0.47;0.47;;;;;;;48.28;26.91;97989.19;6125927;23;20021;-70
2021/08/04 04:37:23;;;;;;;0.30;0.30;;;;;;;48.22;26.88;97997.06;6126084;23;20048;-70
2021/08/04 04:39:48;;;;;;;0.20;0.20;;;;;;;48.12;26.96;97987.72;6125597;23;20080;-72
2021/08/04 04:42:14;;;;;;;0.20;0.20;;;;;;;48.15;27.08;97994.59;6100039;23;20017;-71
2021/08/04 04:44:40;;;;;;;0.30;0.20;;;;;;;48.13;26.88;97989.31;6125908;23;20017;-73
2021/08/04 04:47:05;;;;;;;0.20;0.20;;;;;;;48.19;26.86;97989.38;6125963;23;20292;-72
2021/08/04 04:49:31;;;;;;;0.20;0.20;;;;;;;48.26;26.58;97991.03;6126023;23;20033;-72
2021/08/04 04:51:57;;;;;;;0.40;0.40;;;;;;;48.21;26.69;97983.84;6125886;23;20459;-71
2021/08/04 04:54:22;;;;;;;0.20;0.20;;;;;;;48.18;26.67;97979.03;6126139;23;20014;-71
2021/08/04 04:56:48;;;;;;;0.20;0.20;;;;;;;48.37;26.29;97985.31;6125857;23;20052;-71
2021/08/04 04:59:14;;;;;;;1.33;1.30;;;;;;;48.61;26.05;97985.03;6126100;23;20020;-71
2021/08/04 05:01:40;;;;;;;0.20;0.20;;;;;;;48.81;25.79;97981.19;6126196;23;20021;-72
2021/08/04 05:04:05;;;;;;;0.40;0.40;;;;;;;48.80;25.80;97970.88;6125733;23;20038;-71
2021/08/04 05:06:31;;;;;;;0.20;0.20;;;;;;;48.29;26.25;97984.19;6125446;23;20029;-72
2021/08/04 05:08:57;;;;;;;0.22;0.22;;;;;;;47.90;26.63;97988.25;6126163;23;20014;-72
2021/08/04 05:11:23;;;;;;;0.20;0.20;;;;;;;47.67;26.74;97978.41;6133101;23;20006;-71
2021/08/04 05:13:48;;;;;;;0.22;0.22;;;;;;;47.62;26.68;97979.94;6139289;23;20455;-72
2021/08/04 05:16:14;;;;;;;0.30;0.30;;;;;;;47.54;26.59;97984.59;6128368;23;20096;-71
2021/08/04 05:18:40;;;;;;;0.63;0.63;;;;;;;47.46;26.36;97980.53;6125987;23;20017;-70
2021/08/04 05:21:05;;;;;;;0.35;0.35;;;;;;;46.76;27.07;97982.09;6126096;23;20065;-71
2021/08/04 05:23:31;;;;;;;0.28;0.28;;;;;;;45.13;28.92;97986.97;6126248;23;20014;-71
2021/08/04 05:25:57;;;;;;;0.20;0.20;;;;;;;43.60;30.33;97987.84;6125918;23;20447;-71
2021/08/04 05:28:23;;;;;;;0.20;0.20;;;;;;;41.46;33.03;97980.84;6125856;23;20010;-72
2021/08/04 05:30:48;;;;;;;0.47;0.47;;;;;;;39.25;35.56;97976.28;6125794;23;20013;-71
2021/08/04 05:33:14;;;;;;;0.40;0.40;;;;;;;37.40;38.06;97975.69;6125779;23;20439;-71
2021/08/04 05:35:40;;;;;;;0.52;0.30;;;;;;;36.24;38.85;97970.88;6125461;23;20017;-72
2021/08/04 05:38:06;;;;;;;0.20;0.20;;;;;;;35.24;40.12;97967.84;6125048;23;20021;-71
2021/08/04 05:40:31;;;;;;;0.10;0.10;;;;;;;34.54;40.69;97963.09;6123871;23;20392;-71
2021/08/04 05:42:57;;;;;;;0.47;0.47;;;;;;;34.03;40.43;97959.66;6098271;23;20466;-72
2021/08/04 05:45:23;;;;;;;0.30;0.30;;;;;;;33.67;40.35;97958.94;6124482;23;20021;-71
2021/08/04 05:47:48;;;;;;;0.10;0.10;;;;;;;33.39;40.24;97954.94;6124486;23;20064;-72
2021/08/04 05:50:14;;;;;;;0.47;0.40;;;;;;;33.22;39.98;97950.09;6124282;23;20029;-70
2021/08/04 05:52:40;;;;;;;0.40;0.40;;;;;;;33.04;40.00;97945.22;6124203;23;20064;-72
2021/08/04 05:55:06;;;;;;;0.40;0.40;;;;;;;32.80;39.94;97936.28;6123949;23;20022;-72
2021/08/04 05:57:32;;;;;;;0.20;0.20;;;;;;;32.58;40.05;97946.78;6124313;23;20021;-73
2021/08/04 05:59:58;;;;;;;0.10;0.10;;;;;;;32.39;39.85;97944.31;6124041;23;20347;-72
2021/08/04 06:02:23;;;;;;;0.28;0.28;;;;;;;32.26;39.46;97953.22;6124245;23;20017;-70
2021/08/04 06:04:49;;;;;;;0.38;0.28;;;;;;;32.21;39.42;97947.91;6124042;23;20073;-70
2021/08/04 06:07:15;;;;;;;0.20;0.20;;;;;;;32.11;39.06;97940.13;6124076;23;20050;-71
2021/08/04 06:09:41;;;;;;;0.13;0.13;;;;;;;32.06;39.41;97938.50;6124249;23;20042;-70
2021/08/04 06:12:07;;;;;;;0.30;0.20;;;;;;;32.16;38.63;97939.78;6123742;23;20017;-70
2021/08/04 06:14:33;;;;;;;0.95;0.47;;;;;;;32.21;38.57;97933.72;6124037;23;20435;-72
2021/08/04 06:16:58;;;;;;;0.20;0.20;;;;;;;32.17;38.34;97920.72;6123912;23;20010;-73
2021/08/04 06:19:24;;;;;;;0.20;0.20;;;;;;;32.13;38.25;97935.72;6124335;23;20052;-70
2021/08/04 06:21:50;;;;;;;0.20;0.10;;;;;;;32.02;38.30;97932.00;6123933;23;20017;-71
2021/08/04 06:24:15;;;;;;;0.52;0.52;;;;;;;31.79;38.94;97924.63;6123838;23;20013;-69
2021/08/04 06:26:41;;;;;;;0.43;0.40;;;;;;;31.61;38.75;97923.72;6123964;23;20024;-72
2021/08/04 06:29:07;;;;;;;0.75;0.35;;;;;;;31.45;39.06;97926.84;6123680;23;20033;-72
2021/08/04 06:31:33;;;;;;;2.92;0.20;;;;;;;31.26;39.09;97931.59;6123942;23;20017;-72
2021/08/04 06:33:58;;;;;;;0.20;0.20;;;;;;;31.14;39.32;97929.09;6121284;23;20036;-72
2021/08/04 06:36:25;;;;;;;0.80;0.80;;;;;;;31.10;38.94;97929.06;6123532;23;20032;-70
2021/08/04 06:38:51;;;;;;;0.10;0.10;;;;;;;31.06;38.68;97919.69;6123426;23;20009;-71
2021/08/04 06:41:16;;;;;;;0.30;0.30;;;;;;;31.01;38.98;97922.91;6123199;23;20038;-71
2021/08/04 06:43:42;;;;;;;0.10;0.10;;;;;;;30.98;38.84;97915.19;6124031;23;20018;-71
2021/08/04 06:46:12;;;;;;;0.10;0.10;;;;;;;30.93;38.89;97912.69;6123768;23;20093;-71
2021/08/04 06:48:38;;;;;;;0.10;0.10;;;;;;;30.87;38.88;97919.94;6123962;23;20375;-70
2021/08/04 06:51:04;;;;;;;0.25;0.25;;;;;;;30.78;38.89;97914.59;6123935;23;20056;-72
2021/08/04 06:53:30;;;;;;;0.22;0.22;;;;;;;30.65;38.81;97916.13;6124321;23;20017;-71
2021/08/04 06:55:55;;;;;;;0.45;0.45;;;;;;;30.66;38.90;97906.41;6123514;23;20014;-70
2021/08/04 06:58:21;;;;;;;0.38;0.38;;;;;;;30.70;38.59;97908.06;6123703;23;20440;-72
2021/08/04 07:00:47;;;;;;;1.23;0.30;;;;;;;30.68;38.69;97902.00;6123816;23;20013;-76
2021/08/04 07:03:13;;;;;;;0.30;0.30;;;;;;;30.70;38.58;97908.06;6123352;23;20042;-73
2021/08/04 07:05:40;;;;;;;0.38;0.30;;;;;;;30.84;38.11;97898.88;6124066;23;20064;-72
2021/08/04 07:08:09;;;;;;;0.30;0.30;;;;;;;31.01;37.82;97891.75;6123386;23;20104;-71
2021/08/04 07:10:35;;;;;;;0.20;0.20;;;;;;;31.10;37.80;97903.53;6122743;23;20014;-70
2021/08/04 07:13:01;;;;;;;0.20;0.20;;;;;;;31.19;37.63;97897.53;6124006;23;20024;-72
2021/08/04 07:15:27;;;;;;;1.85;0.30;;;;;;;31.31;37.55;97906.91;6113145;23;20064;-70
2021/08/04 07:17:53;;;;;;;0.20;0.20;;;;;;;31.44;37.15;97896.88;6124706;23;20010;-69
2021/08/04 07:20:21;;;;;;;1.00;0.28;;;;;;;31.48;37.28;97897.69;6124238;23;20017;-70
2021/08/04 07:22:48;;;;;;;0.10;0.10;;;;;;;31.49;37.40;97899.31;6123292;23;20016;-70
2021/08/04 07:25:15;;;;;;;0.10;0.10;;;;;;;31.48;37.02;97903.38;6121105;23;20040;-71
2021/08/04 07:27:42;;;;;;;0.35;0.35;;;;;;;31.38;37.37;97895.63;6125115;23;20013;-70
2021/08/04 07:30:10;;;;;;;0.20;0.20;;;;;;;31.26;37.61;97883.38;6125366;23;20013;-70
2021/08/04 07:32:36;;;;;;;0.10;0.10;;;;;;;31.10;37.87;97897.88;6125343;23;20411;-71
2021/08/04 07:35:03;;;;;;;1.15;0.77;;;;;;;31.03;37.83;97897.00;6125002;23;20021;-70
2021/08/04 07:37:31;;;;;;;0.20;0.20;;;;;;;31.09;37.75;97903.94;6125534;23;20434;-70
2021/08/04 07:39:57;;;;;;;4.25;0.35;;;;;;;31.11;37.84;97901.53;6124830;23;20346;-70
2021/08/04 07:42:24;;;;;;;0.22;0.22;;;;;;;31.13;37.86;97903.97;6125322;23;20347;-68
2021/08/04 07:44:50;;;;;;;0.30;0.20;;;;;;;31.15;37.66;97908.03;6125564;23;20014;-71
2021/08/04 07:47:16;;;;;;;0.20;0.20;;;;;;;31.16;37.66;97901.16;6125185;23;20021;-69
2021/08/04 07:49:42;;;;;;;0.10;0.10;;;;;;;31.16;37.77;97906.03;6125367;23;20021;-71
2021/08/04 07:52:08;;;;;;;0.30;0.30;;;;;;;31.07;37.67;97897.84;6125062;23;20013;-70
2021/08/04 07:54:34;;;;;;;0.15;0.15;;;;;;;30.97;37.79;97898.56;6124683;23;20017;-69
2021/08/04 07:57:00;;;;;;;0.63;0.47;;;;;;;30.83;37.91;97885.09;6125052;23;20036;-69
2021/08/04 07:59:26;;;;;;;0.10;0.10;;;;;;;30.74;38.09;97885.41;6125176;23;20014;-68
2021/08/04 08:01:52;;;;;;;0.13;0.13;;;;;;;30.70;38.18;97882.56;6125369;23;20069;-69
2021/08/04 08:04:18;;;;;;;0.17;0.17;;;;;;;30.71;38.34;97883.38;6125234;23;20392;-69
2021/08/04 08:06:44;;;;;;;0.28;0.28;;;;;;;30.72;38.39;97880.16;6125142;23;20030;-68
2021/08/04 08:09:13;;;;;;;0.45;0.30;;;;;;;30.73;38.22;97870.44;6099353;23;20355;-69
2021/08/04 08:11:42;;;;;;;0.25;0.25;;;;;;;30.74;38.31;97883.41;6125009;23;20021;-70
2021/08/04 08:14:07;;;;;;;2.20;0.52;;;;;;;30.72;38.31;97885.81;6125317;23;20444;-69
2021/08/04 08:16:33;;;;;;;0.22;0.22;;;;;;;30.70;38.19;97879.75;6125182;23;20070;-71
2021/08/04 08:18:59;;;;;;;0.20;0.20;;;;;;;30.64;38.40;97881.31;6125675;23;20022;-70
2021/08/04 08:25:27;;;;;;;0.52;0.10;;;;;;;30.68;38.35;97856.66;6110857;23;20028;-71
2021/08/04 08:35:19;;;;;;;0.47;0.35;;;;;;;30.98;38.07;97858.50;6110539;23;20029;-74
2021/08/04 08:38:24;;;;;;;0.10;0.10;;;;;;;31.03;37.96;97860.97;6118826;23;20014;-72
2021/08/04 08:41:30;;;;;;;0.30;0.30;;;;;;;31.10;37.69;97854.53;6098017;23;20014;-69
2021/08/04 08:44:36;;;;;;;0.20;0.20;;;;;;;31.20;37.82;97852.97;6121870;23;20068;-69
2021/08/04 08:47:47;;;;;;;0.20;0.20;;;;;;;31.35;37.21;97860.34;6098699;23;20045;-72
2021/08/04 08:50:53;;;;;;;0.10;0.10;;;;;;;31.56;37.15;97864.53;6125455;23;20021;-69
2021/08/04 08:53:59;;;;;;;0.32;0.32;;;;;;;31.66;37.06;97858.09;6125373;23;20441;-68
2021/08/04 08:57:04;;;;;;;0.25;0.25;;;;;;;31.63;37.35;97860.91;6126138;23;20025;-70
2021/08/04 09:00:10;;;;;;;0.10;0.10;;;;;;;31.50;37.48;97860.41;6125837;23;20014;-70
2021/08/04 09:03:15;;;;;;;6.50;1.27;;;;;;;31.36;37.93;97849.81;6097678;23;20014;-71
2021/08/04 09:06:27;;;;;;;0.20;0.20;;;;;;;31.47;37.76;97852.72;6125859;23;20010;-69
2021/08/04 09:09:32;;;;;;;0.30;0.30;;;;;;;31.68;37.38;97849.16;6154881;23;20032;-69
2021/08/04 09:12:06;;;;;;;0.75;0.30;;;;;;;31.84;37.31;97848.81;6154073;23;20092;-69
2021/08/04 09:14:51;;;;;;;;;;;;;;;31.94;36.79;97850.88;6159168;23;20016;-68
2021/08/04 09:17:17;;;;;;;0.85;0.73;;;;;;;32.10;36.76;97853.34;6169833;23;19917;-69
2021/08/04 09:19:46;;;;;;;0.43;0.43;;;;;;;32.28;36.69;97853.41;6154907;23;20016;-70
2021/08/04 09:22:23;;;;;;;0.13;0.13;;;;;;;32.43;36.77;97852.19;6129415;23;20028;-69
2021/08/04 09:25:09;;;;;;;0.17;0.17;;;;;;;32.48;36.63;97848.94;6154520;23;20465;-69
2021/08/04 09:27:43;;;;;;;0.30;0.30;;;;;;;32.47;36.82;97855.03;6155269;23;20015;-71
2021/08/04 09:30:13;;;;;;;0.20;0.20;;;;;;;32.46;36.98;97850.56;6155534;23;20013;-70
2021/08/04 09:32:38;;;;;;;0.20;0.20;;;;;;;32.54;36.59;97857.88;6154901;23;20037;-69
2021/08/04 09:35:23;;;;;;;0.50;0.50;;;;;;;32.63;36.71;97857.47;6153481;23;20009;-70
2021/08/04 09:37:49;;;;;;;0.20;0.20;;;;;;;32.76;36.48;97852.19;6154836;23;20060;-72
2021/08/04 09:40:21;;;;;;;0.13;0.13;;;;;;;32.93;36.08;97842.84;6154232;23;20473;-71
2021/08/04 09:42:54;;;;;;;0.50;0.50;;;;;;;33.17;36.15;97840.34;6155135;23;20014;-70
2021/08/04 09:45:25;;;;;;;0.65;0.65;;;;;;;33.27;36.05;97838.75;6154740;23;20005;-70
2021/08/04 09:47:59;;;;;;;0.10;0.10;;;;;;;33.24;35.92;97834.69;6154589;23;20041;-71
2021/08/04 09:50:24;;;;;;;0.30;0.30;;;;;;;33.10;36.29;97854.59;6154591;23;20449;-69
2021/08/04 09:52:57;;;;;;;0.13;0.13;;;;;;;32.82;36.89;97842.06;6155305;23;20092;-70
2021/08/04 09:55:24;;;;;;;0.20;0.20;;;;;;;32.50;37.18;97840.00;6153446;23;20038;-70
2021/08/04 09:57:53;;;;;;;0.50;0.50;;;;;;;32.13;38.03;97847.69;6153865;23;20509;-69
2021/08/04 10:04:01;;;;;;;0.10;0.10;;;;;;;31.90;38.22;97841.53;6142698;23;20024;-68
2021/08/04 10:10:29;;;;;;;0.17;0.17;;;;;;;32.26;37.29;97828.25;6139199;23;20426;-69
2021/08/04 10:20:21;;;;;;;0.20;0.20;;;;;;;32.55;36.74;97827.44;6147414;23;20029;-69
2021/08/04 10:23:27;;;;;;;0.20;0.20;;;;;;;32.55;36.97;97824.59;6148471;23;20124;-70
2021/08/04 10:26:33;;;;;;;0.65;0.47;;;;;;;32.44;37.18;97818.91;6152268;23;20073;-74
2021/08/04 10:29:40;;;;;;;0.00;0.00;;;;;;;32.33;37.55;97813.22;6153456;23;20017;-68
2021/08/04 10:32:45;;;;;;;0.28;0.28;;;;;;;32.13;37.84;97802.25;6153218;23;20104;-72
2021/08/04 10:39:13;;;;;;;0.15;0.15;;;;;;;31.23;38.86;97790.59;6147164;23;20052;-70
2021/08/04 10:45:24;;;;;;;0.20;0.20;;;;;;;31.13;39.10;97785.69;6146965;23;20422;-69
2021/08/04 10:48:38;;;;;;;0.20;0.20;;;;;;;31.27;38.61;97776.44;6153386;23;20033;-70
2021/08/04 10:51:50;;;;;;;0.30;0.20;;;;;;;31.52;38.03;97772.88;6152264;23;20016;-71
2021/08/04 10:54:55;;;;;;;0.20;0.20;;;;;;;31.64;38.08;97771.72;6150265;23;20032;-71
2021/08/04 10:57:59;;;;;;;0.10;0.10;;;;;;;31.66;37.84;97778.63;6153213;23;20017;-70
2021/08/04 11:04:33;;;;;;;0.20;0.10;;;;;;;31.58;38.04;97783.47;6138747;23;20040;-68
2021/08/04 11:07:08;;;;;;;0.20;0.20;;;;;;;31.58;38.30;97765.63;6152905;23;20056;-69
2021/08/04 11:09:49;;;;;;;0.20;0.20;;;;;;;31.49;38.21;97773.69;6152959;23;20331;-70
2021/08/04 11:12:21;;;;;;;0.25;0.25;;;;;;;31.31;38.58;97767.97;6153420;23;20010;-70
2021/08/04 11:14:49;;;;;;;0.10;0.10;;;;;;;31.14;38.75;97775.16;6157104;23;20005;-70
2021/08/04 11:17:20;;;;;;;0.00;0.00;;;;;;;30.98;39.05;97762.13;6168475;23;20033;-69
2021/08/04 11:20:08;;;;;;;0.20;0.20;;;;;;;30.86;39.36;97759.59;6155323;23;20020;-70
2021/08/04 11:22:39;;;;;;;0.20;0.20;;;;;;;30.85;39.25;97752.31;6150288;23;20013;-69
2021/08/04 11:25:08;;;;;;;0.30;0.30;;;;;;;30.90;39.14;97749.94;6152521;23;20013;-70
2021/08/04 11:27:55;;;;;;;0.30;0.30;;;;;;;31.13;38.79;97750.88;6153201;23;20017;-69
2021/08/04 11:30:33;;;;;;;0.10;0.10;;;;;;;31.18;38.56;97741.97;6152954;23;20064;-69
2021/08/04 11:33:17;;;;;;;0.17;0.17;;;;;;;31.14;38.76;97741.97;6153245;23;20013;-70
2021/08/04 11:36:00;;;;;;;0.10;0.10;;;;;;;31.07;38.77;97750.44;6152646;23;20443;-68
2021/08/04 11:38:58;;;;;;;0.53;0.40;;;;;;;30.98;38.92;97753.59;6126982;23;20111;-69
2021/08/04 11:41:31;;;;;;;0.10;0.10;;;;;;;30.85;39.21;97758.00;6126385;23;20529;-69
2021/08/04 11:44:09;;;;;;;0.20;0.20;;;;;;;30.68;39.54;97754.66;6153767;23;20013;-70
2021/08/04 11:46:39;;;;;;;0.22;0.22;;;;;;;30.50;39.98;97754.53;6153430;23;20014;-70
2021/08/04 11:49:09;;;;;;;0.20;0.20;;;;;;;30.39;39.93;97757.25;6152941;23;20460;-69
2021/08/04 11:51:50;;;;;;;0.75;0.60;;;;;;;30.29;40.33;97760.81;6149992;23;20018;-70
2021/08/04 11:54:32;;;;;;;0.10;0.10;;;;;;;30.15;40.34;97764.38;6149148;23;20443;-69
2021/08/04 11:56:58;;;;;;;0.40;0.40;;;;;;;30.02;40.51;97774.34;6151216;23;20013;-69
2021/08/04 11:59:24;;;;;;;0.28;0.28;;;;;;;29.89;40.54;97796.47;6152231;23;20023;-71
2021/08/04 12:02:01;;;;;;;0.13;0.13;;;;;;;29.79;41.15;97794.31;6152860;23;20009;-69
2021/08/04 12:04:31;;;;;;;0.20;0.20;;;;;;;29.65;41.04;97800.63;6152632;23;20063;-71
2021/08/04 12:07:07;;;;;;;0.35;0.35;;;;;;;29.50;41.87;97810.94;6152012;23;20053;-70
2021/08/04 12:09:35;;;;;;;0.30;0.30;;;;;;;29.33;41.92;97804.69;6151270;23;20029;-69
2021/08/04 12:12:03;;;;;;;0.40;0.40;;;;;;;29.22;42.33;97803.75;6150015;23;20010;-69
2021/08/04 12:14:32;;;;;;;0.77;0.77;;;;;;;29.06;42.53;97812.38;6154105;23;20033;-69
2021/08/04 12:16:59;;;;;;;0.75;0.57;;;;;;;28.92;42.77;97813.00;6154659;23;20009;-69
2021/08/04 12:19:39;;;;;;;0.55;0.40;;;;;;;28.79;43.08;97823.72;6153175;23;20089;-69
2021/08/04 12:22:17;;;;;;;0.57;0.43;;;;;;;28.64;43.24;97816.22;6151921;23;20037;-69
2021/08/04 12:24:47;;;;;;;0.10;0.10;;;;;;;28.52;43.37;97817.22;6152213;23;20014;-69
2021/08/04 12:27:13;;;;;;;0.10;0.10;;;;;;;28.48;43.59;97822.78;6150783;23;20009;-71
2021/08/04 12:29:39;;;;;;;0.10;0.10;;;;;;;28.52;43.32;97813.56;6150701;23;20036;-69